createdAt,value
2022-12-13T00:00:49.316Z,0.88
2022-12-13T00:03:36.203Z,0.46
2022-12-13T00:06:05.317Z,0.78
2022-12-13T00:08:32.155Z,0.99
2022-12-13T00:11:19.370Z,0.78
2022-12-13T00:13:49.402Z,1.05
2022-12-13T00:16:17.105Z,1.28
2022-12-13T00:18:48.960Z,1.28
2022-12-13T00:21:20.994Z,0.87
2022-12-13T00:23:48.121Z,0.98
2022-12-13T00:26:17.348Z,1.07
2022-12-13T00:28:44.313Z,1.13
2022-12-13T00:31:51.530Z,1.13
2022-12-13T00:33:58.750Z,1.23
2022-12-13T00:36:26.876Z,1.31
2022-12-13T00:39:02.840Z,1.35
2022-12-13T00:41:31.654Z,1.43
2022-12-13T00:43:58.662Z,1.57
2022-12-13T00:46:26.584Z,1.37
2022-12-13T00:48:54.991Z,1.23
2022-12-13T00:51:41.804Z,1.46
2022-12-13T00:54:12.839Z,1.12
2022-12-13T00:56:39.770Z,1.08
2022-12-13T00:59:07.012Z,1.36
2022-12-13T01:01:34.748Z,1.48
2022-12-13T01:04:02.692Z,1.62
2022-12-13T01:06:29.639Z,1.63
2022-12-13T01:08:59.054Z,1.66
2022-12-13T01:11:25.811Z,1.66
2022-12-13T01:13:52.723Z,1.55
2022-12-13T01:16:20.029Z,1.51
2022-12-13T01:18:47.576Z,1.37
2022-12-13T01:21:18.168Z,1.32
2022-12-13T01:23:45.330Z,1.16
2022-12-13T01:26:17.764Z,1.07
2022-12-13T01:28:44.658Z,1.23
2022-12-13T01:31:13.123Z,1.26
2022-12-13T01:33:40.387Z,1.42
2022-12-13T01:36:28.412Z,1.46
2022-12-13T01:39:15.848Z,1.41
2022-12-13T01:41:44.524Z,1.22
2022-12-13T01:44:29.861Z,1.13
2022-12-13T01:46:56.703Z,1.09
2022-12-13T01:49:23.636Z,1.09
2022-12-13T01:51:56.268Z,1.14
2022-12-13T01:54:34.198Z,1.04
2022-12-13T01:57:03.722Z,0.96
2022-12-13T01:59:30.566Z,0.91
2022-12-13T02:02:01.016Z,0.88
2022-12-13T02:04:34.509Z,0.87
2022-12-13T02:07:13.050Z,0.81
2022-12-13T02:09:41.556Z,0.76
2022-12-13T02:12:09.005Z,0.88
2022-12-13T02:14:38.104Z,0.70
2022-12-13T02:17:16.856Z,0.16
2022-12-13T02:19:58.700Z,-0.42
2022-12-13T02:22:40.675Z,0.05
2022-12-13T02:27:53.219Z,0.06
2022-12-13T02:30:48.422Z,-0.08
2022-12-13T02:33:25.059Z,-0.42
2022-12-13T02:35:57.799Z,-0.17
2022-12-13T02:38:37.858Z,-0.17
2022-12-13T02:41:16.832Z,-0.25
2022-12-13T02:44:01.364Z,-0.19
2022-12-13T02:46:30.552Z,-0.44
2022-12-13T02:49:00.096Z,-0.21
2022-12-13T02:51:27.824Z,-0.17
2022-12-13T02:53:54.710Z,-0.66
2022-12-13T02:56:22.654Z,-0.39
2022-12-13T02:58:53.656Z,-0.37
2022-12-13T03:01:28.592Z,-0.27
2022-12-13T03:04:03.027Z,-0.28
2022-12-13T03:06:34.077Z,-0.72
2022-12-13T03:09:10.773Z,-0.72
2022-12-13T03:12:08.061Z,-1.10
2022-12-13T03:14:36.801Z,-0.78
2022-12-13T03:17:06.550Z,-0.50
2022-12-13T03:19:33.520Z,-0.46
2022-12-13T03:22:00.601Z,-0.75
2022-12-13T03:24:27.602Z,-0.87
2022-12-13T03:26:54.363Z,-0.75
2022-12-13T03:29:23.974Z,-0.52
2022-12-13T03:31:51.891Z,-0.76
2022-12-13T03:34:22.312Z,-0.79
2022-12-13T03:36:50.102Z,-0.63
2022-12-13T03:39:17.051Z,-0.55
2022-12-13T03:41:44.042Z,-0.71
2022-12-13T03:44:11.239Z,-0.58
2022-12-13T03:46:38.294Z,-0.64
2022-12-13T03:49:06.591Z,-0.58
2022-12-13T03:51:33.757Z,-0.66
2022-12-13T03:54:00.809Z,-0.77
2022-12-13T03:56:29.661Z,-0.59
2022-12-13T03:59:00.049Z,-0.63
2022-12-13T04:01:26.851Z,-0.72
2022-12-13T04:03:55.286Z,-0.53
2022-12-13T04:06:24.020Z,-0.70
2022-12-13T04:08:53.341Z,-0.79
2022-12-13T04:11:42.578Z,-0.60
2022-12-13T04:14:23.807Z,-0.88
2022-12-13T04:16:55.090Z,-2.08
2022-12-13T04:19:24.278Z,-1.44
2022-12-13T04:21:54.714Z,-1.26
2022-12-13T04:24:31.299Z,-1.44
2022-12-13T04:27:07.211Z,-1.33
2022-12-13T04:29:37.757Z,-1.24
2022-12-13T04:32:05.441Z,-1.25
2022-12-13T04:35:12.721Z,-2.01
2022-12-13T04:37:43.748Z,-2.05
2022-12-13T04:40:22.816Z,-2.11
2022-12-13T04:46:10.868Z,-2.06
2022-12-13T04:51:36.419Z,-2.15
2022-12-13T04:54:23.955Z,-1.87
2022-12-13T04:56:55.268Z,-1.96
2022-12-13T05:02:05.177Z,-1.51
2022-12-13T05:04:33.622Z,-1.58
2022-12-13T05:07:03.527Z,-1.49
2022-12-13T05:09:31.381Z,-1.85
2022-12-13T05:12:01.046Z,-2.93
2022-12-13T05:14:35.129Z,-2.69
2022-12-13T05:17:05.260Z,-2.04
2022-12-13T05:19:32.780Z,-1.91
2022-12-13T05:22:01.573Z,-1.85
2022-12-13T05:24:29.829Z,-2.92
2022-12-13T05:26:57.895Z,-2.18
2022-12-13T05:29:29.200Z,-2.10
2022-12-13T05:31:58.296Z,-1.99
2022-12-13T05:34:25.697Z,-1.89
2022-12-13T05:36:52.876Z,-1.83
2022-12-13T05:39:28.013Z,-1.88
2022-12-13T05:42:01.056Z,-1.69
2022-12-13T05:44:43.991Z,-1.84
2022-12-13T05:47:12.867Z,-1.85
2022-12-13T05:49:39.898Z,-1.85
2022-12-13T05:52:15.548Z,-1.51
2022-12-13T05:54:42.953Z,-1.43
2022-12-13T05:57:10.461Z,-1.46
2022-12-13T05:59:37.278Z,-1.70
2022-12-13T06:02:06.436Z,-1.85
2022-12-13T06:04:34.634Z,-1.76
2022-12-13T06:07:01.914Z,-1.60
2022-12-13T06:09:29.829Z,-1.63
2022-12-13T06:12:00.920Z,-1.55
2022-12-13T06:14:28.836Z,-1.68
2022-12-13T06:16:57.917Z,-1.58
2022-12-13T06:19:27.438Z,-1.62
2022-12-13T06:22:11.880Z,-2.10
2022-12-13T06:24:42.181Z,-1.79
2022-12-13T06:27:28.877Z,-1.80
2022-12-13T06:30:13.985Z,-1.77
2022-12-13T06:32:44.089Z,-1.69
2022-12-13T06:35:28.657Z,-1.95
2022-12-13T06:38:01.124Z,-2.16
2022-12-13T06:40:34.106Z,-2.13
2022-12-13T06:43:01.281Z,-1.92
2022-12-13T06:45:28.122Z,-1.88
2022-12-13T06:47:56.269Z,-1.74
2022-12-13T06:50:27.020Z,-1.75
2022-12-13T06:52:58.139Z,-1.91
2022-12-13T06:55:24.793Z,-1.51
2022-12-13T06:57:52.208Z,-1.79
2022-12-13T07:00:22.420Z,-1.68
2022-12-13T07:02:54.256Z,-1.05
2022-12-13T07:05:22.197Z,-0.87
2022-12-13T07:08:11.411Z,-0.53
2022-12-13T07:10:40.775Z,0.05
2022-12-13T07:13:07.613Z,0.44
2022-12-13T07:15:34.828Z,0.97
2022-12-13T07:18:02.949Z,1.36
2022-12-13T07:20:29.854Z,1.74
2022-12-13T07:22:58.767Z,2.28
2022-12-13T07:25:27.555Z,2.64
2022-12-13T07:28:01.065Z,2.79
2022-12-13T07:30:28.858Z,2.75
2022-12-13T07:32:55.598Z,2.82
2022-12-13T07:35:25.131Z,3.18
2022-12-13T07:37:51.963Z,2.88
2022-12-13T07:40:18.770Z,2.81
2022-12-13T07:42:52.109Z,2.76
2022-12-13T07:45:19.287Z,3.29
2022-12-13T07:47:46.092Z,3.52
2022-12-13T07:50:24.164Z,3.83
2022-12-13T07:52:52.164Z,4.13
2022-12-13T07:55:18.952Z,4.27
2022-12-13T07:57:50.322Z,4.66
2022-12-13T08:00:17.588Z,4.53
2022-12-13T08:02:44.268Z,3.95
2022-12-13T08:05:26.421Z,4.02
2022-12-13T08:07:55.947Z,3.91
2022-12-13T08:10:22.836Z,4.64
2022-12-13T08:12:52.396Z,4.97
2022-12-13T08:15:19.480Z,6.06
2022-12-13T08:17:48.459Z,6.32
2022-12-13T08:20:22.273Z,6.63
2022-12-13T08:23:01.626Z,6.87
2022-12-13T08:25:31.763Z,6.96
2022-12-13T08:28:01.659Z,6.35
2022-12-13T08:30:31.148Z,4.97
2022-12-13T08:32:57.938Z,4.93
2022-12-13T08:35:33.479Z,5.23
2022-12-13T08:38:02.915Z,4.85
2022-12-13T08:40:29.679Z,4.61
2022-12-13T08:42:56.576Z,4.86
2022-12-13T08:45:24.537Z,5.29
2022-12-13T08:47:51.461Z,5.55
2022-12-13T08:50:18.376Z,5.57
2022-12-13T08:52:51.794Z,5.56
2022-12-13T08:55:23.771Z,5.87
2022-12-13T08:58:01.166Z,6.02
2022-12-13T09:00:28.698Z,6.47
2022-12-13T09:03:04.757Z,6.64
2022-12-13T09:05:35.174Z,6.57
2022-12-13T09:08:24.179Z,6.83
2022-12-13T09:11:01.587Z,7.35
2022-12-13T09:13:39.434Z,7.40
2022-12-13T09:16:23.277Z,7.91
2022-12-13T09:18:54.725Z,8.09
2022-12-13T09:21:22.680Z,7.63
2022-12-13T09:24:01.380Z,8.24
2022-12-13T09:26:29.015Z,8.01
2022-12-13T09:29:10.281Z,8.16
2022-12-13T09:31:41.221Z,8.18
2022-12-13T09:34:09.273Z,7.98
2022-12-13T09:36:40.001Z,7.15
2022-12-13T09:39:07.074Z,6.38
2022-12-13T09:41:41.162Z,7.23
2022-12-13T09:44:32.115Z,7.09
2022-12-13T09:47:14.076Z,7.41
2022-12-13T09:49:52.162Z,7.02
2022-12-13T09:52:22.514Z,7.38
2022-12-13T09:54:51.563Z,5.52
2022-12-13T09:57:31.577Z,6.69
2022-12-13T10:00:13.401Z,6.97
2022-12-13T10:02:45.782Z,7.42
2022-12-13T10:05:23.308Z,7.69
2022-12-13T10:07:53.111Z,7.40
2022-12-13T10:10:20.274Z,7.91
2022-12-13T10:12:50.816Z,8.27
2022-12-13T10:15:24.420Z,7.93
2022-12-13T10:17:55.195Z,7.59
2022-12-13T10:20:28.401Z,7.71
2022-12-13T10:23:31.414Z,8.44
2022-12-13T10:25:50.973Z,8.49
2022-12-13T10:28:26.014Z,9.03
2022-12-13T10:30:55.205Z,9.26
2022-12-13T10:33:24.827Z,9.04
2022-12-13T10:36:07.872Z,9.58
2022-12-13T10:38:39.087Z,9.73
2022-12-13T10:41:25.792Z,9.48
2022-12-13T10:44:08.319Z,9.30
2022-12-13T10:46:38.868Z,9.59
2022-12-13T10:49:16.184Z,8.87
2022-12-13T10:51:43.617Z,9.53
2022-12-13T10:54:25.589Z,9.72
2022-12-13T10:56:56.236Z,9.57
2022-12-13T10:59:33.501Z,9.49
2022-12-13T11:02:04.031Z,10.02
2022-12-13T11:04:32.422Z,10.07
2022-12-13T11:07:21.067Z,10.28
2022-12-13T11:09:52.573Z,9.35
2022-12-13T11:12:24.211Z,9.69
2022-12-13T11:15:01.648Z,7.13
2022-12-13T11:17:29.998Z,6.41
2022-12-13T11:19:58.541Z,5.58
2022-12-13T11:22:35.143Z,5.84
2022-12-13T11:25:04.278Z,5.98
2022-12-13T11:27:46.451Z,6.52
2022-12-13T11:30:25.736Z,7.25
2022-12-13T11:33:00.360Z,7.52
2022-12-13T11:35:43.054Z,7.17
2022-12-13T11:38:11.839Z,7.07
2022-12-13T11:40:43.337Z,7.00
2022-12-13T11:43:31.124Z,6.16
2022-12-13T11:45:59.620Z,6.53
2022-12-13T11:48:35.676Z,7.20
2022-12-13T11:51:07.819Z,6.76
2022-12-13T11:53:56.715Z,6.54
2022-12-13T11:56:27.834Z,6.72
2022-12-13T11:59:07.077Z,6.51
2022-12-13T12:01:42.098Z,5.79
2022-12-13T12:04:14.799Z,6.63
2022-12-13T12:06:48.724Z,6.93
2022-12-13T12:09:18.030Z,7.08
2022-12-13T12:11:45.154Z,7.40
2022-12-13T12:14:21.728Z,7.70
2022-12-13T12:17:01.184Z,7.95
2022-12-13T12:19:37.032Z,8.37
2022-12-13T12:22:18.605Z,8.74
2022-12-13T12:24:47.411Z,9.08
2022-12-13T12:27:32.881Z,9.33
2022-12-13T12:30:07.813Z,8.61
2022-12-13T12:32:42.231Z,9.22
2022-12-13T12:35:20.514Z,9.26
2022-12-13T12:38:04.204Z,9.26
2022-12-13T12:41:23.186Z,9.29
2022-12-13T12:43:41.414Z,9.65
2022-12-13T12:47:09.029Z,10.11
2022-12-13T12:49:46.937Z,9.88
2022-12-13T12:52:41.197Z,10.17
2022-12-13T12:55:29.580Z,10.19
2022-12-13T12:57:58.179Z,10.63
2022-12-13T13:00:30.899Z,10.63
2022-12-13T13:03:26.880Z,10.79
2022-12-13T13:06:13.369Z,10.72
2022-12-13T13:08:54.970Z,10.93
2022-12-13T13:11:32.201Z,11.12
2022-12-13T13:14:03.878Z,11.08
2022-12-13T13:16:41.003Z,10.88
2022-12-13T13:19:15.435Z,10.81
2022-12-13T13:21:48.746Z,10.85
2022-12-13T13:27:11.391Z,10.89
2022-12-13T13:29:49.079Z,10.82
2022-12-13T13:32:41.206Z,10.14
2022-12-13T13:35:27.856Z,8.75
2022-12-13T13:37:58.279Z,8.75
2022-12-13T13:40:31.893Z,8.84
2022-12-13T13:43:16.462Z,7.35
2022-12-13T13:45:51.911Z,6.40
2022-12-13T13:48:24.701Z,5.81
2022-12-13T13:51:15.442Z,5.75
2022-12-13T13:53:44.924Z,5.85
2022-12-13T13:56:32.710Z,5.60
2022-12-13T13:59:26.792Z,5.36
2022-12-13T14:02:27.809Z,5.24
2022-12-13T14:05:10.880Z,5.61
2022-12-13T14:07:40.838Z,4.69
2022-12-13T14:10:29.997Z,4.28
2022-12-13T14:13:12.690Z,4.36
2022-12-13T14:15:51.731Z,4.82
2022-12-13T14:18:22.516Z,4.30
2022-12-13T14:21:00.083Z,4.46
2022-12-13T14:23:39.793Z,4.80
2022-12-13T14:26:28.505Z,4.91
2022-12-13T14:28:57.144Z,5.22
2022-12-13T14:31:33.864Z,4.37
2022-12-13T14:34:25.317Z,4.14
2022-12-13T14:37:01.237Z,4.59
2022-12-13T14:39:29.828Z,5.06
2022-12-13T14:41:58.931Z,4.86
2022-12-13T14:44:34.892Z,4.72
2022-12-13T14:47:04.562Z,4.46
2022-12-13T14:49:34.069Z,4.87
2022-12-13T14:52:26.890Z,4.09
2022-12-13T14:55:08.475Z,4.55
2022-12-13T14:57:41.988Z,4.70
2022-12-13T15:00:43.428Z,4.92
2022-12-13T15:03:22.445Z,4.51
2022-12-13T15:05:52.577Z,4.59
2022-12-13T15:08:20.178Z,4.28
2022-12-13T15:10:48.878Z,3.54
2022-12-13T15:13:24.832Z,3.30
2022-12-13T15:15:57.765Z,2.61
2022-12-13T15:18:27.961Z,2.22
2022-12-13T15:20:59.366Z,2.96
2022-12-13T15:23:48.876Z,2.78
2022-12-13T15:26:29.048Z,2.84
2022-12-13T15:28:58.389Z,2.95
2022-12-13T15:31:25.233Z,2.88
2022-12-13T15:33:52.044Z,3.09
2022-12-13T15:36:23.055Z,3.42
2022-12-13T15:38:55.885Z,3.10
2022-12-13T15:41:30.773Z,3.17
2022-12-13T15:43:59.514Z,2.63
2022-12-13T15:46:33.024Z,2.37
2022-12-13T15:49:03.368Z,2.50
2022-12-13T15:51:30.946Z,2.09
2022-12-13T15:54:06.109Z,2.09
2022-12-13T15:56:41.802Z,2.70
2022-12-13T15:59:25.050Z,1.96
2022-12-13T16:01:58.244Z,1.74
2022-12-13T16:04:30.189Z,1.80
2022-12-13T16:07:01.521Z,1.64
2022-12-13T16:09:33.827Z,2.45
2022-12-13T16:12:02.082Z,2.60
2022-12-13T16:14:31.038Z,2.76
2022-12-13T16:17:00.709Z,1.98
2022-12-13T16:19:35.559Z,2.05
2022-12-13T16:22:08.280Z,1.94
2022-12-13T16:24:36.419Z,1.70
2022-12-13T16:27:08.609Z,1.42
2022-12-13T16:29:36.196Z,1.69
2022-12-13T16:32:08.064Z,2.03
2022-12-13T16:34:36.310Z,1.81
2022-12-13T16:37:03.167Z,2.38
2022-12-13T16:39:35.556Z,2.27
2022-12-13T16:42:02.285Z,2.19
2022-12-13T16:44:32.128Z,2.59
2022-12-13T16:47:12.404Z,1.52
2022-12-13T16:49:45.544Z,1.83
2022-12-13T16:52:12.348Z,1.49
2022-12-13T16:54:39.119Z,2.10
2022-12-13T16:57:05.876Z,1.64
2022-12-13T16:59:33.839Z,2.26
2022-12-13T17:02:06.859Z,1.85
2022-12-13T17:04:38.346Z,2.24
2022-12-13T17:07:14.831Z,2.04
2022-12-13T17:09:47.103Z,2.71
2022-12-13T17:12:15.318Z,2.68
2022-12-13T17:14:47.536Z,2.64
2022-12-13T17:17:17.543Z,2.52
2022-12-13T17:19:45.668Z,2.74
2022-12-13T17:22:17.057Z,2.22
2022-12-13T17:24:46.282Z,2.07
2022-12-13T17:27:22.704Z,1.83
2022-12-13T17:29:49.809Z,2.09
2022-12-13T17:32:16.668Z,2.12
2022-12-13T17:34:43.518Z,2.26
2022-12-13T17:37:10.717Z,2.02
2022-12-13T17:39:38.013Z,2.11
2022-12-13T17:42:06.128Z,2.49
2022-12-13T17:44:33.035Z,2.21
2022-12-13T17:47:01.525Z,2.77
2022-12-13T17:49:28.583Z,2.37
2022-12-13T17:51:55.856Z,2.86
2022-12-13T17:54:27.866Z,2.94
2022-12-13T17:57:14.608Z,2.85
2022-12-13T17:59:43.253Z,3.13
2022-12-13T18:02:12.148Z,3.34
2022-12-13T18:04:41.029Z,3.43
2022-12-13T18:07:08.082Z,3.53
2022-12-13T18:09:36.814Z,3.52
2022-12-13T18:12:03.742Z,3.56
2022-12-13T18:14:30.483Z,3.79
2022-12-13T18:16:57.283Z,3.77
2022-12-13T18:19:26.022Z,3.60
2022-12-13T18:21:52.799Z,2.86
2022-12-13T18:24:19.477Z,2.54
2022-12-13T18:26:48.164Z,2.38
2022-12-13T18:29:14.822Z,2.28
2022-12-13T18:31:41.775Z,2.65
2022-12-13T18:34:10.908Z,2.32
2022-12-13T18:36:39.639Z,2.46
2022-12-13T18:39:06.552Z,2.50
2022-12-13T18:41:33.354Z,2.80
2022-12-13T18:44:04.533Z,2.38
2022-12-13T18:46:34.800Z,2.69
2022-12-13T18:49:01.670Z,2.80
2022-12-13T18:51:28.556Z,2.34
2022-12-13T18:53:56.297Z,1.86
2022-12-13T18:56:23.593Z,2.17
2022-12-13T18:58:50.997Z,2.09
2022-12-13T19:01:18.391Z,2.39
2022-12-13T19:03:48.356Z,2.34
2022-12-13T19:06:16.998Z,2.28
2022-12-13T19:08:45.913Z,2.29
2022-12-13T19:11:12.789Z,2.00
2022-12-13T19:13:39.825Z,1.74
2022-12-13T19:16:08.256Z,2.14
2022-12-13T19:18:35.574Z,1.69
2022-12-13T19:21:02.618Z,1.67
2022-12-13T19:23:29.844Z,1.42
2022-12-13T19:25:56.832Z,1.59
2022-12-13T19:28:23.821Z,1.95
2022-12-13T19:30:50.743Z,2.20
2022-12-13T19:33:18.661Z,1.95
2022-12-13T19:35:49.434Z,2.23
2022-12-13T19:38:16.205Z,2.25
2022-12-13T19:40:42.895Z,2.43
2022-12-13T19:43:11.487Z,2.32
2022-12-13T19:45:38.702Z,1.77
2022-12-13T19:48:05.379Z,2.25
2022-12-13T19:50:32.351Z,1.99
2022-12-13T19:52:59.018Z,2.50
2022-12-13T19:55:26.030Z,1.88
2022-12-13T19:57:53.141Z,1.75
2022-12-13T20:00:20.145Z,1.94
2022-12-13T20:02:47.023Z,1.61
2022-12-13T20:05:14.023Z,1.42
2022-12-13T20:07:41.100Z,1.54
2022-12-13T20:10:08.557Z,2.17
2022-12-13T20:12:40.883Z,2.12
2022-12-13T20:15:08.230Z,2.32
2022-12-13T20:17:35.595Z,2.17
2022-12-13T20:20:02.918Z,1.74
2022-12-13T20:22:30.218Z,1.59
2022-12-13T20:24:59.059Z,2.05
2022-12-13T20:27:26.016Z,1.82
2022-12-13T20:29:53.023Z,1.97
2022-12-13T20:32:21.198Z,2.30
2022-12-13T20:34:54.770Z,2.28
2022-12-13T20:37:22.324Z,2.18
2022-12-13T20:39:49.356Z,2.22
2022-12-13T20:42:16.076Z,1.99
2022-12-13T20:44:42.945Z,2.19
2022-12-13T20:47:10.270Z,2.10
2022-12-13T20:49:37.460Z,2.03
2022-12-13T20:52:04.369Z,2.06
2022-12-13T20:54:31.285Z,2.09
2022-12-13T20:57:18.152Z,2.03
2022-12-13T20:59:49.496Z,1.37
2022-12-13T21:02:17.438Z,1.39
2022-12-13T21:04:44.217Z,1.94
2022-12-13T21:07:13.542Z,2.17
2022-12-13T21:09:40.680Z,2.86
2022-12-13T21:12:07.504Z,2.53
2022-12-13T21:14:34.764Z,2.07
2022-12-13T21:17:02.122Z,2.00
2022-12-13T21:19:34.425Z,1.84
2022-12-13T21:22:02.881Z,2.08
2022-12-13T21:24:29.820Z,1.98
2022-12-13T21:26:57.239Z,1.57
2022-12-13T21:29:24.352Z,1.87
2022-12-13T21:31:51.174Z,1.42
2022-12-13T21:34:19.297Z,1.58
2022-12-13T21:36:47.469Z,1.33
2022-12-13T21:39:15.778Z,1.71
2022-12-13T21:41:43.366Z,1.55
2022-12-13T21:44:14.491Z,1.83
2022-12-13T21:49:29.121Z,1.85
2022-12-13T21:51:57.237Z,1.62
2022-12-13T21:54:24.104Z,1.66
2022-12-13T21:57:09.788Z,1.78
2022-12-13T21:59:36.495Z,1.32
2022-12-13T22:02:17.023Z,1.53
2022-12-13T22:04:43.947Z,1.47
2022-12-13T22:07:12.431Z,1.11
2022-12-13T22:09:39.752Z,1.28
2022-12-13T22:12:10.416Z,1.65
2022-12-13T22:14:37.848Z,0.88
2022-12-13T22:17:04.709Z,1.23
2022-12-13T22:19:31.445Z,1.12
2022-12-13T22:21:58.294Z,1.25
2022-12-13T22:24:25.475Z,1.81
2022-12-13T22:26:52.296Z,1.35
2022-12-13T22:29:18.960Z,1.15
2022-12-13T22:31:48.860Z,1.40
2022-12-13T22:34:16.351Z,1.52
2022-12-13T22:36:43.157Z,1.13
2022-12-13T22:39:17.086Z,1.48
2022-12-13T22:41:44.065Z,1.32
2022-12-13T22:44:15.756Z,1.29
2022-12-13T22:46:42.715Z,1.08
2022-12-13T22:49:11.605Z,1.05
2022-12-13T22:51:38.413Z,1.11
2022-12-13T22:54:05.695Z,1.11
2022-12-13T22:56:32.684Z,1.00
2022-12-13T22:59:04.143Z,0.93
2022-12-13T23:01:31.828Z,1.22
2022-12-13T23:03:59.009Z,1.29
2022-12-13T23:06:29.834Z,1.11
2022-12-13T23:08:57.640Z,1.50
2022-12-13T23:11:43.498Z,1.31
2022-12-13T23:14:14.269Z,1.28
2022-12-13T23:16:41.355Z,1.52
2022-12-13T23:19:40.324Z,1.25
2022-12-13T23:21:57.647Z,1.30
2022-12-13T23:24:27.858Z,1.71
2022-12-13T23:26:54.602Z,1.20
2022-12-13T23:29:21.403Z,1.07
2022-12-13T23:31:49.249Z,1.43
2022-12-13T23:34:16.175Z,1.72
2022-12-13T23:36:43.259Z,1.17
2022-12-13T23:39:11.462Z,0.88
2022-12-13T23:41:38.992Z,1.02
2022-12-13T23:44:06.919Z,0.54
2022-12-13T23:46:35.850Z,0.51
2022-12-13T23:49:04.848Z,0.34
2022-12-13T23:51:31.923Z,0.81
2022-12-13T23:53:59.409Z,1.05
2022-12-13T23:56:26.120Z,1.02
2022-12-13T23:58:53.218Z,0.64
